sensor_id;sensor_type;location;lat;lon;timestamp;pressure;altitude;pressure_sealevel;temperature;humidity
75668;BME280;64266;48.798;44.756;2023-06-19T00:04:58;101152.13;;;17.56;40.35
75668;BME280;64266;48.798;44.756;2023-06-19T00:10:01;101160.28;;;17.44;40.60
75668;BME280;64266;48.798;44.756;2023-06-19T00:15:05;101149.09;;;17.25;40.41
75668;BME280;64266;48.798;44.756;2023-06-19T00:20:08;101160.25;;;17.17;40.20
75668;BME280;64266;48.798;44.756;2023-06-19T00:25:11;101155.25;;;17.04;40.31
75668;BME280;64266;48.798;44.756;2023-06-19T00:30:14;101164.28;;;16.98;40.24
75668;BME280;64266;48.798;44.756;2023-06-19T00:35:19;101168.28;;;16.96;40.08
75668;BME280;64266;48.798;44.756;2023-06-19T00:40:26;101182.44;;;16.91;40.33
75668;BME280;64266;48.798;44.756;2023-06-19T00:45:30;101158.31;;;16.69;40.69
75668;BME280;64266;48.798;44.756;2023-06-19T00:50:34;101182.84;;;16.83;40.61
75668;BME280;64266;48.798;44.756;2023-06-19T00:55:39;101161.59;;;16.76;40.46
75668;BME280;64266;48.798;44.756;2023-06-19T01:00:43;101154.69;;;16.59;40.43
75668;BME280;64266;48.798;44.756;2023-06-19T01:06:10;101197.00;;;16.78;40.23
75668;BME280;64266;48.798;44.756;2023-06-19T01:11:18;101174.50;;;16.58;40.25
75668;BME280;64266;48.798;44.756;2023-06-19T01:16:30;101183.22;;;16.53;39.70
75668;BME280;64266;48.798;44.756;2023-06-19T01:21:33;101177.97;;;16.58;39.66
75668;BME280;64266;48.798;44.756;2023-06-19T01:26:38;101206.25;;;16.71;39.15
75668;BME280;64266;48.798;44.756;2023-06-19T01:31:47;101196.88;;;16.68;39.18
75668;BME280;64266;48.798;44.756;2023-06-19T01:36:53;101187.69;;;16.64;39.16
75668;BME280;64266;48.798;44.756;2023-06-19T01:42:00;101175.69;;;16.67;39.33
75668;BME280;64266;48.798;44.756;2023-06-19T01:47:12;101215.28;;;16.82;39.26
75668;BME280;64266;48.798;44.756;2023-06-19T01:52:17;101219.00;;;16.80;40.34
75668;BME280;64266;48.798;44.756;2023-06-19T01:57:20;101217.13;;;16.81;39.85
75668;BME280;64266;48.798;44.756;2023-06-19T02:02:24;101232.72;;;16.67;40.12
75668;BME280;64266;48.798;44.756;2023-06-19T02:07:27;101234.19;;;16.58;40.54
75668;BME280;64266;48.798;44.756;2023-06-19T02:12:29;101240.84;;;16.56;40.23
75668;BME280;64266;48.798;44.756;2023-06-19T02:17:33;101232.59;;;16.57;40.24
75668;BME280;64266;48.798;44.756;2023-06-19T02:22:38;101231.69;;;16.68;40.01
75668;BME280;64266;48.798;44.756;2023-06-19T02:27:42;101246.09;;;17.01;39.06
75668;BME280;64266;48.798;44.756;2023-06-19T02:32:45;101244.38;;;17.38;38.07
75668;BME280;64266;48.798;44.756;2023-06-19T02:37:47;101235.31;;;17.87;36.32
75668;BME280;64266;48.798;44.756;2023-06-19T02:42:50;101215.41;;;18.10;34.96
75668;BME280;64266;48.798;44.756;2023-06-19T02:47:52;101242.25;;;18.42;34.20
75668;BME280;64266;48.798;44.756;2023-06-19T02:52:55;101243.53;;;18.66;33.54
75668;BME280;64266;48.798;44.756;2023-06-19T02:57:58;101262.13;;;19.25;32.41
75668;BME280;64266;48.798;44.756;2023-06-19T03:03:00;101259.09;;;19.73;31.37
75668;BME280;64266;48.798;44.756;2023-06-19T03:08:03;101255.66;;;20.79;29.74
75668;BME280;64266;48.798;44.756;2023-06-19T03:13:06;101255.16;;;22.34;27.45
75668;BME280;64266;48.798;44.756;2023-06-19T03:18:08;101256.19;;;23.85;25.63
75668;BME280;64266;48.798;44.756;2023-06-19T03:23:14;101257.91;;;24.78;24.09
75668;BME280;64266;48.798;44.756;2023-06-19T03:28:17;101263.69;;;25.58;23.42
75668;BME280;64266;48.798;44.756;2023-06-19T03:33:20;101272.19;;;26.37;22.34
75668;BME280;64266;48.798;44.756;2023-06-19T03:38:23;101269.69;;;27.11;21.85
75668;BME280;64266;48.798;44.756;2023-06-19T03:43:27;101277.56;;;27.86;20.64
75668;BME280;64266;48.798;44.756;2023-06-19T03:48:31;101271.44;;;28.58;20.03
75668;BME280;64266;48.798;44.756;2023-06-19T03:53:35;101272.72;;;29.36;20.21
75668;BME280;64266;48.798;44.756;2023-06-19T03:58:38;101272.41;;;29.37;18.69
75668;BME280;64266;48.798;44.756;2023-06-19T04:03:41;101283.72;;;29.27;18.78
75668;BME280;64266;48.798;44.756;2023-06-19T04:08:44;101274.72;;;29.27;18.69
75668;BME280;64266;48.798;44.756;2023-06-19T04:13:48;101266.44;;;29.44;18.38
75668;BME280;64266;48.798;44.756;2023-06-19T04:18:52;101269.69;;;29.37;18.50
75668;BME280;64266;48.798;44.756;2023-06-19T04:23:55;101273.63;;;29.69;18.21
75668;BME280;64266;48.798;44.756;2023-06-19T04:28:59;101289.09;;;30.27;17.42
75668;BME280;64266;48.798;44.756;2023-06-19T04:34:03;101294.09;;;30.46;17.03
75668;BME280;64266;48.798;44.756;2023-06-19T04:39:07;101287.66;;;30.75;16.84
75668;BME280;64266;48.798;44.756;2023-06-19T04:44:11;101286.81;;;31.19;16.66
75668;BME280;64266;48.798;44.756;2023-06-19T04:49:13;101295.19;;;31.87;15.99
75668;BME280;64266;48.798;44.756;2023-06-19T04:54:17;101295.66;;;32.16;15.74
75668;BME280;64266;48.798;44.756;2023-06-19T04:59:20;101294.50;;;32.45;15.60
75668;BME280;64266;48.798;44.756;2023-06-19T05:04:24;101296.56;;;32.48;15.31
75668;BME280;64266;48.798;44.756;2023-06-19T05:09:28;101292.38;;;32.82;14.48
75668;BME280;64266;48.798;44.756;2023-06-19T05:14:32;101295.97;;;33.33;15.30
75668;BME280;64266;48.798;44.756;2023-06-19T05:19:35;101281.47;;;33.87;14.44
75668;BME280;64266;48.798;44.756;2023-06-19T05:24:37;101287.84;;;34.29;13.96
75668;BME280;64266;48.798;44.756;2023-06-19T05:29:40;101285.38;;;33.86;13.92
75668;BME280;64266;48.798;44.756;2023-06-19T05:34:43;101286.88;;;33.64;13.98
75668;BME280;64266;48.798;44.756;2023-06-19T05:39:47;101289.88;;;34.13;13.72
75668;BME280;64266;48.798;44.756;2023-06-19T05:44:50;101285.72;;;34.61;13.95
75668;BME280;64266;48.798;44.756;2023-06-19T05:49:59;101288.38;;;35.03;13.38
75668;BME280;64266;48.798;44.756;2023-06-19T05:55:03;101286.97;;;35.12;12.77
75668;BME280;64266;48.798;44.756;2023-06-19T06:00:08;101289.66;;;35.35;13.30
75668;BME280;64266;48.798;44.756;2023-06-19T06:05:18;101282.72;;;35.45;13.15
75668;BME280;64266;48.798;44.756;2023-06-19T06:10:24;101294.03;;;35.62;13.73
75668;BME280;64266;48.798;44.756;2023-06-19T06:15:28;101279.97;;;35.18;13.31
75668;BME280;64266;48.798;44.756;2023-06-19T06:20:31;101292.19;;;35.44;13.14
75668;BME280;64266;48.798;44.756;2023-06-19T06:25:35;101282.25;;;35.13;13.12
75668;BME280;64266;48.798;44.756;2023-06-19T06:30:37;101272.28;;;35.31;13.05
75668;BME280;64266;48.798;44.756;2023-06-19T06:35:43;101292.94;;;34.92;13.08
75668;BME280;64266;48.798;44.756;2023-06-19T06:40:47;101257.00;;;34.43;13.48
75668;BME280;64266;48.798;44.756;2023-06-19T06:45:50;101260.00;;;34.15;14.26
75668;BME280;64266;48.798;44.756;2023-06-19T06:50:54;101272.44;;;34.09;13.52
75668;BME280;64266;48.798;44.756;2023-06-19T06:56:04;101299.88;;;34.02;14.10
75668;BME280;64266;48.798;44.756;2023-06-19T07:01:12;101266.31;;;34.15;14.33
75668;BME280;64266;48.798;44.756;2023-06-19T07:06:19;101245.22;;;33.85;14.22
75668;BME280;64266;48.798;44.756;2023-06-19T07:11:22;101299.94;;;34.05;14.45
75668;BME280;64266;48.798;44.756;2023-06-19T07:16:25;101299.63;;;33.72;14.62
75668;BME280;64266;48.798;44.756;2023-06-19T07:21:29;101289.28;;;34.04;14.09
75668;BME280;64266;48.798;44.756;2023-06-19T07:26:32;101301.44;;;33.64;15.03
75668;BME280;64266;48.798;44.756;2023-06-19T07:31:36;101295.81;;;32.95;15.81
75668;BME280;64266;48.798;44.756;2023-06-19T07:36:40;101308.56;;;33.03;16.25
75668;BME280;64266;48.798;44.756;2023-06-19T07:41:48;101292.88;;;32.56;16.12
75668;BME280;64266;48.798;44.756;2023-06-19T07:47:01;101316.22;;;32.50;15.68
75668;BME280;64266;48.798;44.756;2023-06-19T07:52:16;101272.34;;;31.83;16.70
75668;BME280;64266;48.798;44.756;2023-06-19T07:58:05;101293.44;;;31.54;16.69
75668;BME280;64266;48.798;44.756;2023-06-19T08:03:09;101289.88;;;31.17;17.66
75668;BME280;64266;48.798;44.756;2023-06-19T08:08:12;101321.56;;;30.70;17.42
75668;BME280;64266;48.798;44.756;2023-06-19T08:13:23;101313.09;;;29.89;18.05
75668;BME280;64266;48.798;44.756;2023-06-19T08:18:29;101316.56;;;29.10;18.37
75668;BME280;64266;48.798;44.756;2023-06-19T08:23:33;101324.56;;;28.60;18.69
75668;BME280;64266;48.798;44.756;2023-06-19T08:28:37;101336.31;;;28.35;19.26
75668;BME280;64266;48.798;44.756;2023-06-19T08:33:48;101244.69;;;27.82;20.75
75668;BME280;64266;48.798;44.756;2023-06-19T08:39:08;101308.38;;;27.95;20.00
75668;BME280;64266;48.798;44.756;2023-06-19T08:44:16;101322.97;;;27.99;21.25
75668;BME280;64266;48.798;44.756;2023-06-19T08:49:21;101298.22;;;27.61;19.83
75668;BME280;64266;48.798;44.756;2023-06-19T08:54:25;101330.41;;;27.51;20.73
75668;BME280;64266;48.798;44.756;2023-06-19T08:59:30;101333.53;;;27.35;20.46
75668;BME280;64266;48.798;44.756;2023-06-19T09:04:35;101316.53;;;27.21;20.66
75668;BME280;64266;48.798;44.756;2023-06-19T09:09:44;101313.31;;;27.19;19.82
75668;BME280;64266;48.798;44.756;2023-06-19T09:15:12;101324.53;;;27.26;20.38
75668;BME280;64266;48.798;44.756;2023-06-19T09:20:26;101298.25;;;27.13;21.21
75668;BME280;64266;48.798;44.756;2023-06-19T09:25:31;101304.06;;;26.98;20.86
75668;BME280;64266;48.798;44.756;2023-06-19T09:30:34;101297.22;;;27.01;20.91
75668;BME280;64266;48.798;44.756;2023-06-19T09:35:37;101281.47;;;26.89;21.21
75668;BME280;64266;48.798;44.756;2023-06-19T09:40:40;101291.94;;;27.04;21.51
75668;BME280;64266;48.798;44.756;2023-06-19T09:45:48;101264.88;;;27.08;21.22
75668;BME280;64266;48.798;44.756;2023-06-19T09:51:10;101290.06;;;27.13;21.34
75668;BME280;64266;48.798;44.756;2023-06-19T09:56:17;101267.72;;;26.94;21.47
75668;BME280;64266;48.798;44.756;2023-06-19T10:01:27;101248.78;;;26.89;21.31
75668;BME280;64266;48.798;44.756;2023-06-19T10:06:32;101267.75;;;27.03;21.10
75668;BME280;64266;48.798;44.756;2023-06-19T10:11:50;101273.38;;;26.75;21.96
75668;BME280;64266;48.798;44.756;2023-06-19T10:17:08;101268.00;;;26.84;22.07
75668;BME280;64266;48.798;44.756;2023-06-19T10:22:19;101259.34;;;26.82;21.93
75668;BME280;64266;48.798;44.756;2023-06-19T10:27:26;101254.13;;;26.72;20.80
75668;BME280;64266;48.798;44.756;2023-06-19T10:32:29;101245.13;;;26.63;21.62
75668;BME280;64266;48.798;44.756;2023-06-19T10:37:33;101256.38;;;26.70;22.27
75668;BME280;64266;48.798;44.756;2023-06-19T10:42:37;101213.09;;;26.29;21.53
75668;BME280;64266;48.798;44.756;2023-06-19T10:47:40;101225.72;;;26.25;22.10
75668;BME280;64266;48.798;44.756;2023-06-19T10:52:44;101248.31;;;26.56;22.04
75668;BME280;64266;48.798;44.756;2023-06-19T10:57:49;101234.31;;;26.49;21.00
75668;BME280;64266;48.798;44.756;2023-06-19T11:02:52;101248.13;;;26.30;22.19
75668;BME280;64266;48.798;44.756;2023-06-19T11:07:58;101202.88;;;26.12;21.65
75668;BME280;64266;48.798;44.756;2023-06-19T11:13:02;101247.03;;;26.31;22.24
75668;BME280;64266;48.798;44.756;2023-06-19T11:18:05;101242.44;;;26.40;22.11
75668;BME280;64266;48.798;44.756;2023-06-19T11:23:10;101228.69;;;26.46;22.49
75668;BME280;64266;48.798;44.756;2023-06-19T11:28:16;101229.41;;;26.51;21.74
75668;BME280;64266;48.798;44.756;2023-06-19T11:33:25;101223.72;;;26.39;20.40
75668;BME280;64266;48.798;44.756;2023-06-19T11:38:30;101218.84;;;26.27;21.59
75668;BME280;64266;48.798;44.756;2023-06-19T11:43:34;101212.47;;;26.32;21.31
75668;BME280;64266;48.798;44.756;2023-06-19T11:48:40;101206.69;;;26.25;22.51
75668;BME280;64266;48.798;44.756;2023-06-19T11:54:08;101215.03;;;26.28;20.82
75668;BME280;64266;48.798;44.756;2023-06-19T11:59:13;101202.06;;;26.12;22.61
75668;BME280;64266;48.798;44.756;2023-06-19T12:04:17;101204.50;;;26.13;20.77
75668;BME280;64266;48.798;44.756;2023-06-19T12:09:21;101197.38;;;26.17;20.70
75668;BME280;64266;48.798;44.756;2023-06-19T12:14:24;101198.03;;;26.23;20.96
75668;BME280;64266;48.798;44.756;2023-06-19T12:19:28;101185.41;;;26.05;20.33
75668;BME280;64266;48.798;44.756;2023-06-19T12:24:32;101181.84;;;25.96;20.51
75668;BME280;64266;48.798;44.756;2023-06-19T12:29:36;101125.06;;;25.72;20.63
75668;BME280;64266;48.798;44.756;2023-06-19T12:34:40;101173.59;;;26.09;21.04
75668;BME280;64266;48.798;44.756;2023-06-19T12:39:43;101171.00;;;26.18;21.07
75668;BME280;64266;48.798;44.756;2023-06-19T12:44:48;101178.63;;;26.16;22.53
75668;BME280;64266;48.798;44.756;2023-06-19T12:49:52;101171.88;;;26.13;21.96
75668;BME280;64266;48.798;44.756;2023-06-19T12:54:56;101171.28;;;26.16;20.86
75668;BME280;64266;48.798;44.756;2023-06-19T13:00:03;101174.09;;;26.11;22.35
75668;BME280;64266;48.798;44.756;2023-06-19T13:05:12;101135.44;;;25.92;23.15
75668;BME280;64266;48.798;44.756;2023-06-19T13:10:15;101161.91;;;26.09;22.14
75668;BME280;64266;48.798;44.756;2023-06-19T13:15:18;101152.91;;;26.00;24.52
75668;BME280;64266;48.798;44.756;2023-06-19T13:20:21;101154.34;;;25.97;23.45
75668;BME280;64266;48.798;44.756;2023-06-19T13:25:25;101146.75;;;25.85;22.87
75668;BME280;64266;48.798;44.756;2023-06-19T13:30:29;101144.22;;;25.89;22.66
75668;BME280;64266;48.798;44.756;2023-06-19T13:35:33;101131.22;;;25.77;22.88
75668;BME280;64266;48.798;44.756;2023-06-19T13:40:36;101126.69;;;25.73;22.23
75668;BME280;64266;48.798;44.756;2023-06-19T13:45:40;101148.00;;;25.79;22.76
75668;BME280;64266;48.798;44.756;2023-06-19T13:50:46;101137.19;;;25.66;21.75
75668;BME280;64266;48.798;44.756;2023-06-19T13:55:51;101142.69;;;25.52;21.87
75668;BME280;64266;48.798;44.756;2023-06-19T14:00:55;101152.50;;;25.48;21.59
75668;BME280;64266;48.798;44.756;2023-06-19T14:06:00;101136.50;;;25.24;21.61
75668;BME280;64266;48.798;44.756;2023-06-19T14:11:03;101156.38;;;25.33;22.02
75668;BME280;64266;48.798;44.756;2023-06-19T14:16:07;101139.63;;;25.18;21.90
75668;BME280;64266;48.798;44.756;2023-06-19T14:21:11;101155.19;;;25.26;21.62
75668;BME280;64266;48.798;44.756;2023-06-19T14:26:14;101148.59;;;25.18;21.96
75668;BME280;64266;48.798;44.756;2023-06-19T14:31:17;101151.22;;;25.10;21.87
75668;BME280;64266;48.798;44.756;2023-06-19T14:36:20;101155.31;;;25.07;21.63
75668;BME280;64266;48.798;44.756;2023-06-19T14:41:23;101156.16;;;24.94;21.57
75668;BME280;64266;48.798;44.756;2023-06-19T14:46:27;101154.34;;;24.90;22.00
75668;BME280;64266;48.798;44.756;2023-06-19T14:51:33;101155.97;;;24.91;21.51
75668;BME280;64266;48.798;44.756;2023-06-19T14:56:36;101138.84;;;24.76;21.94
75668;BME280;64266;48.798;44.756;2023-06-19T15:01:40;101161.78;;;24.84;21.59
75668;BME280;64266;48.798;44.756;2023-06-19T15:06:43;101144.09;;;24.59;22.00
75668;BME280;64266;48.798;44.756;2023-06-19T15:11:46;101119.88;;;24.36;22.78
75668;BME280;64266;48.798;44.756;2023-06-19T15:16:50;101175.13;;;24.67;21.86
75668;BME280;64266;48.798;44.756;2023-06-19T15:21:53;101162.84;;;24.56;21.81
75668;BME280;64266;48.798;44.756;2023-06-19T15:26:55;101179.13;;;24.56;21.60
75668;BME280;64266;48.798;44.756;2023-06-19T15:32:01;101187.38;;;24.51;21.43
75668;BME280;64266;48.798;44.756;2023-06-19T15:37:04;101171.59;;;24.39;21.70
75668;BME280;64266;48.798;44.756;2023-06-19T15:42:07;101184.34;;;24.39;21.94
75668;BME280;64266;48.798;44.756;2023-06-19T15:47:10;101163.38;;;24.12;22.64
75668;BME280;64266;48.798;44.756;2023-06-19T15:52:12;101184.28;;;24.11;23.14
75668;BME280;64266;48.798;44.756;2023-06-19T15:57:15;101186.53;;;24.04;22.96
75668;BME280;64266;48.798;44.756;2023-06-19T16:02:19;101190.44;;;23.98;22.42
75668;BME280;64266;48.798;44.756;2023-06-19T16:07:23;101165.34;;;23.74;22.61
75668;BME280;64266;48.798;44.756;2023-06-19T16:12:26;101199.28;;;23.85;23.04
75668;BME280;64266;48.798;44.756;2023-06-19T16:17:29;101197.84;;;23.74;23.40
75668;BME280;64266;48.798;44.756;2023-06-19T16:22:32;101201.03;;;23.62;23.84
75668;BME280;64266;48.798;44.756;2023-06-19T16:27:40;101199.84;;;23.50;23.52
75668;BME280;64266;48.798;44.756;2023-06-19T16:32:53;101202.16;;;23.38;23.58
75668;BME280;64266;48.798;44.756;2023-06-19T16:37:56;101184.50;;;23.21;24.23
75668;BME280;64266;48.798;44.756;2023-06-19T16:42:59;101154.81;;;22.93;24.62
75668;BME280;64266;48.798;44.756;2023-06-19T16:48:01;101206.84;;;23.08;25.32
75668;BME280;64266;48.798;44.756;2023-06-19T16:53:05;101197.06;;;22.89;25.52
75668;BME280;64266;48.798;44.756;2023-06-19T16:58:08;101169.19;;;22.64;25.67
75668;BME280;64266;48.798;44.756;2023-06-19T17:03:11;101193.28;;;22.66;26.37
75668;BME280;64266;48.798;44.756;2023-06-19T17:08:16;101208.97;;;22.64;26.52
75668;BME280;64266;48.798;44.756;2023-06-19T17:13:19;101216.81;;;22.60;26.53
75668;BME280;64266;48.798;44.756;2023-06-19T17:18:22;101200.34;;;22.33;26.29
75668;BME280;64266;48.798;44.756;2023-06-19T17:23:25;101226.00;;;22.31;26.51
75668;BME280;64266;48.798;44.756;2023-06-19T17:28:27;101212.38;;;22.17;26.54
75668;BME280;64266;48.798;44.756;2023-06-19T17:33:30;101242.84;;;22.23;26.70
75668;BME280;64266;48.798;44.756;2023-06-19T17:38:33;101228.94;;;22.05;26.92
75668;BME280;64266;48.798;44.756;2023-06-19T17:43:35;101247.06;;;22.00;26.64
75668;BME280;64266;48.798;44.756;2023-06-19T17:48:38;101247.44;;;21.83;26.20
75668;BME280;64266;48.798;44.756;2023-06-19T17:53:40;101244.25;;;21.71;26.44
75668;BME280;64266;48.798;44.756;2023-06-19T17:58:43;101272.81;;;21.82;26.69
75668;BME280;64266;48.798;44.756;2023-06-19T18:03:45;101249.97;;;21.65;27.50
75668;BME280;64266;48.798;44.756;2023-06-19T18:08:48;101273.97;;;21.66;26.94
75668;BME280;64266;48.798;44.756;2023-06-19T18:13:51;101229.28;;;21.45;26.55
75668;BME280;64266;48.798;44.756;2023-06-19T18:18:54;101236.34;;;21.36;26.88
75668;BME280;64266;48.798;44.756;2023-06-19T18:23:56;101252.56;;;21.31;27.29
75668;BME280;64266;48.798;44.756;2023-06-19T18:28:59;101266.84;;;21.36;27.47
75668;BME280;64266;48.798;44.756;2023-06-19T18:34:03;101266.06;;;21.26;28.01
75668;BME280;64266;48.798;44.756;2023-06-19T18:39:05;101253.13;;;21.07;28.76
75668;BME280;64266;48.798;44.756;2023-06-19T18:44:08;101280.13;;;21.18;29.57
75668;BME280;64266;48.798;44.756;2023-06-19T18:49:10;101273.13;;;21.06;29.80
75668;BME280;64266;48.798;44.756;2023-06-19T18:54:13;101264.53;;;20.94;29.74
75668;BME280;64266;48.798;44.756;2023-06-19T18:59:15;101278.53;;;20.96;30.58
75668;BME280;64266;48.798;44.756;2023-06-19T19:04:18;101263.47;;;20.85;30.96
75668;BME280;64266;48.798;44.756;2023-06-19T19:09:21;101244.06;;;20.68;31.48
75668;BME280;64266;48.798;44.756;2023-06-19T19:14:23;101276.41;;;20.78;32.05
75668;BME280;64266;48.798;44.756;2023-06-19T19:19:25;101259.47;;;20.58;32.20
75668;BME280;64266;48.798;44.756;2023-06-19T19:24:29;101249.22;;;20.49;32.13
75668;BME280;64266;48.798;44.756;2023-06-19T19:29:31;101251.13;;;20.44;32.32
75668;BME280;64266;48.798;44.756;2023-06-19T19:34:34;101228.19;;;20.16;32.68
75668;BME280;64266;48.798;44.756;2023-06-19T19:39:36;101230.34;;;20.09;32.91
75668;BME280;64266;48.798;44.756;2023-06-19T19:44:39;101234.94;;;20.09;32.33
75668;BME280;64266;48.798;44.756;2023-06-19T19:49:43;101256.47;;;20.19;32.43
75668;BME280;64266;48.798;44.756;2023-06-19T19:54:45;101252.16;;;20.08;32.37
75668;BME280;64266;48.798;44.756;2023-06-19T19:59:50;101243.53;;;19.95;30.12
75668;BME280;64266;48.798;44.756;2023-06-19T20:04:52;101227.09;;;19.87;29.13
75668;BME280;64266;48.798;44.756;2023-06-19T20:09:55;101251.31;;;19.97;28.77
75668;BME280;64266;48.798;44.756;2023-06-19T20:15:00;101236.53;;;19.89;28.72
75668;BME280;64266;48.798;44.756;2023-06-19T20:20:07;101250.22;;;19.88;27.88
75668;BME280;64266;48.798;44.756;2023-06-19T20:25:10;101237.31;;;19.80;28.44
75668;BME280;64266;48.798;44.756;2023-06-19T20:30:13;101245.91;;;19.72;28.25
75668;BME280;64266;48.798;44.756;2023-06-19T20:35:16;101214.66;;;19.56;28.39
75668;BME280;64266;48.798;44.756;2023-06-19T20:40:19;101255.31;;;19.69;27.69
75668;BME280;64266;48.798;44.756;2023-06-19T20:45:22;101253.16;;;19.66;29.57
75668;BME280;64266;48.798;44.756;2023-06-19T20:50:29;101257.47;;;19.62;30.88
75668;BME280;64266;48.798;44.756;2023-06-19T20:55:31;101260.63;;;19.49;34.53
75668;BME280;64266;48.798;44.756;2023-06-19T21:00:34;101254.91;;;19.35;35.18
75668;BME280;64266;48.798;44.756;2023-06-19T21:05:37;101256.97;;;19.18;34.95
75668;BME280;64266;48.798;44.756;2023-06-19T21:10:39;101264.22;;;19.13;34.91
75668;BME280;64266;48.798;44.756;2023-06-19T21:15:45;101235.31;;;18.88;35.10
75668;BME280;64266;48.798;44.756;2023-06-19T21:20:48;101250.13;;;18.90;35.87
75668;BME280;64266;48.798;44.756;2023-06-19T21:25:52;101237.41;;;18.76;35.89
75668;BME280;64266;48.798;44.756;2023-06-19T21:30:54;101250.84;;;18.76;35.87
75668;BME280;64266;48.798;44.756;2023-06-19T21:35:57;101256.50;;;18.79;35.13
75668;BME280;64266;48.798;44.756;2023-06-19T21:41:01;101222.97;;;18.50;35.87
75668;BME280;64266;48.798;44.756;2023-06-19T21:46:03;101265.56;;;18.68;35.90
75668;BME280;64266;48.798;44.756;2023-06-19T21:51:07;101255.00;;;18.57;36.36
75668;BME280;64266;48.798;44.756;2023-06-19T21:56:10;101219.03;;;18.31;37.14
75668;BME280;64266;48.798;44.756;2023-06-19T22:01:13;101240.31;;;18.37;37.75
75668;BME280;64266;48.798;44.756;2023-06-19T22:06:15;101242.16;;;18.32;38.06
75668;BME280;64266;48.798;44.756;2023-06-19T22:11:18;101246.91;;;18.25;38.72
75668;BME280;64266;48.798;44.756;2023-06-19T22:16:21;101256.94;;;18.34;39.11
75668;BME280;64266;48.798;44.756;2023-06-19T22:21:25;101258.44;;;18.20;39.79
75668;BME280;64266;48.798;44.756;2023-06-19T22:26:30;101196.53;;;17.73;40.81
75668;BME280;64266;48.798;44.756;2023-06-19T22:31:39;101231.84;;;17.87;41.24
75668;BME280;64266;48.798;44.756;2023-06-19T22:36:42;101245.09;;;17.99;42.73
75668;BME280;64266;48.798;44.756;2023-06-19T22:41:44;101242.94;;;18.01;42.24
75668;BME280;64266;48.798;44.756;2023-06-19T22:46:47;101241.31;;;18.00;42.50
75668;BME280;64266;48.798;44.756;2023-06-19T22:51:49;101221.88;;;17.87;42.47
75668;BME280;64266;48.798;44.756;2023-06-19T22:56:52;101235.38;;;17.93;42.42
75668;BME280;64266;48.798;44.756;2023-06-19T23:01:55;101214.84;;;17.81;42.41
75668;BME280;64266;48.798;44.756;2023-06-19T23:06:57;101203.28;;;17.76;42.20
75668;BME280;64266;48.798;44.756;2023-06-19T23:12:04;101221.59;;;17.84;41.92
75668;BME280;64266;48.798;44.756;2023-06-19T23:17:06;101199.19;;;17.68;41.92
75668;BME280;64266;48.798;44.756;2023-06-19T23:22:09;101221.31;;;17.80;41.58
75668;BME280;64266;48.798;44.756;2023-06-19T23:27:12;101192.38;;;17.61;40.99
75668;BME280;64266;48.798;44.756;2023-06-19T23:32:14;101217.50;;;17.76;40.92
75668;BME280;64266;48.798;44.756;2023-06-19T23:37:17;101196.41;;;17.58;40.63
75668;BME280;64266;48.798;44.756;2023-06-19T23:42:20;101214.69;;;17.66;40.51
75668;BME280;64266;48.798;44.756;2023-06-19T23:47:23;101172.25;;;17.37;40.09
75668;BME280;64266;48.798;44.756;2023-06-19T23:52:26;101201.22;;;17.56;39.15
75668;BME280;64266;48.798;44.756;2023-06-19T23:57:45;101212.53;;;17.63;38.90
